Terminal Aerodrome Forecast
Issued by NWS Omaha/Valley, NE

Home | Current Version | Previous Version | Text Only | Print | Product List | Glossary On
Versions: 1 2 3 4 5 6 7 8 9 10 11 12 13 14 15 16 17 18 19 20 21 22 23 24 25 26 27 28 29 30 31
000
FTUS43 KOAX 310520
TAFLNK
TAF
KLNK 310520Z 3106/0106 20006KT P6SM OVC080
      TEMPO 3110/3114 5SM -RA OVC025
     FM311400 17008KT 5SM -RA OVC010 PROB30 3120/0101 12008KT 5SM
      -RASN OVC012
     FM010100 09009KT 3SM -SN OVC010=

USA.gov is the U.S. government's official web portal to all federal, state and local government web resources and services.